Time;durP1;ratioP1;P1;durP2;ratioP2;P2;SDS_P1;SDS_P2;PMS_P1;PMS_P2;Temp;Humidity;BMP_temperature;BMP_pressure;BME280_temperature;BME280_humidity;BME280_pressure;Samples;Min_cycle;Max_cycle;Signal;HPM_P1;HPM_P2
2022/07/17 00:00:25;;;;;;;4.80;2.10;;;;;;;16.91;100.00;99673.71;1716188;82;20110;-69
2022/07/17 00:02:52;;;;;;;4.33;2.05;;;;;;;16.83;100.00;99685.45;1724962;82;21028;-69
2022/07/17 00:05:18;;;;;;;5.00;2.00;;;;;;;16.81;100.00;99673.42;1718919;82;21035;-69
2022/07/17 00:07:49;;;;;;;5.87;2.22;;;;;;;16.85;100.00;99668.11;1710495;82;21649;-69
2022/07/17 00:10:16;;;;;;;5.08;2.17;;;;;;;16.86;100.00;99669.14;1710605;82;21032;-69
2022/07/17 00:12:43;;;;;;;5.45;2.10;;;;;;;16.80;100.00;99669.03;1730624;82;21114;-69
2022/07/17 00:15:10;;;;;;;4.33;2.37;;;;;;;16.74;100.00;99659.86;1714511;82;21043;-69
2022/07/17 00:17:37;;;;;;;9.85;2.17;;;;;;;16.74;100.00;99668.11;1709800;82;21107;-69
2022/07/17 00:20:04;;;;;;;5.12;2.20;;;;;;;16.75;100.00;99662.31;1713694;82;21015;-68
2022/07/17 00:22:31;;;;;;;4.33;1.80;;;;;;;16.76;100.00;99660.34;1709977;82;21107;-69
2022/07/17 00:24:57;;;;;;;;;;;;;;;16.70;100.00;99656.94;1724786;82;21019;-70
2022/07/17 00:27:23;;;;;;;3.58;1.80;;;;;;;16.66;100.00;99657.31;1720811;82;20155;-69
2022/07/17 00:29:50;;;;;;;5.30;2.00;;;;;;;16.62;100.00;99640.38;1720308;82;21047;-69
2022/07/17 00:32:16;;;;;;;;;;;;;;;16.69;100.00;99647.61;1733252;82;20992;-69
2022/07/17 00:34:43;;;;;;;4.25;2.10;;;;;;;16.73;100.00;99650.80;1724620;82;20135;-69
2022/07/17 00:37:09;;;;;;;;;;;;;;;16.62;100.00;99674.73;1728626;82;21003;-68
2022/07/17 00:39:35;;;;;;;5.27;2.23;;;;;;;16.54;100.00;99673.54;1713183;82;20165;-69
2022/07/17 00:42:02;;;;;;;3.58;1.50;;;;;;;16.49;100.00;99651.67;1727681;82;21031;-69
2022/07/17 00:44:29;;;;;;;3.22;1.62;;;;;;;16.52;100.00;99652.97;1720038;82;21654;-69
2022/07/17 00:46:55;;;;;;;;;;;;;;;16.49;100.00;99659.91;1713884;82;21019;-69
2022/07/17 00:49:21;;;;;;;4.15;1.98;;;;;;;16.45;100.00;99658.91;1710159;82;20114;-69
2022/07/17 00:51:47;;;;;;;;;;;;;;;16.35;100.00;99661.91;1725188;82;21462;-69
2022/07/17 00:54:14;;;;;;;4.37;1.87;;;;;;;16.36;100.00;99653.37;1732371;82;20115;-69
2022/07/17 00:56:41;;;;;;;3.95;2.00;;;;;;;16.39;100.00;99643.13;1721500;82;21063;-69
2022/07/17 00:59:07;;;;;;;3.72;2.08;;;;;;;16.42;100.00;99643.05;1722090;82;21071;-68
2022/07/17 01:01:34;;;;;;;4.67;1.87;;;;;;;16.42;100.00;99654.86;1726236;82;21031;-68
2022/07/17 01:04:00;;;;;;;3.70;1.90;;;;;;;16.37;100.00;99644.53;1730141;82;21138;-68
2022/07/17 01:06:26;;;;;;;;;;;;;;;16.36;100.00;99649.25;1726587;82;21541;-68
2022/07/17 01:08:53;;;;;;;6.47;1.90;;;;;;;16.41;100.00;99644.16;1731054;82;20404;-68
2022/07/17 01:11:20;;;;;;;3.35;2.10;;;;;;;16.39;100.00;99642.31;1729917;82;21541;-69
2022/07/17 01:13:47;;;;;;;4.25;1.60;;;;;;;16.39;100.00;99640.94;1737742;82;21000;-69
2022/07/17 01:16:13;;;;;;;3.55;1.70;;;;;;;16.34;100.00;99640.48;1730130;82;21515;-68
2022/07/17 01:18:41;;;;;;;;;;;;;;;16.35;100.00;99631.13;1737108;82;21035;-69
2022/07/17 01:21:07;;;;;;;4.30;1.80;;;;;;;16.43;100.00;99639.19;1733841;81;20099;-68
2022/07/17 01:23:34;;;;;;;4.35;1.80;;;;;;;16.44;100.00;99645.73;1731518;82;21066;-68
2022/07/17 01:26:00;;;;;;;;;;;;;;;16.46;100.00;99650.11;1735895;82;20984;-68
2022/07/17 01:28:27;;;;;;;3.92;1.80;;;;;;;16.42;100.00;99648.55;1734020;82;20101;-68
2022/07/17 01:30:53;;;;;;;;;;;;;;;16.32;100.00;99653.73;1731521;82;21521;-68
2022/07/17 01:33:21;;;;;;;5.10;2.20;;;;;;;16.34;100.00;99650.10;1738685;82;20138;-68
2022/07/17 01:35:47;;;;;;;5.62;1.50;;;;;;;16.34;100.00;99645.98;1735468;82;21054;-68
2022/07/17 01:38:13;;;;;;;;;;;;;;;16.37;100.00;99648.10;1719550;83;21050;-69
2022/07/17 01:40:40;;;;;;;4.22;1.70;;;;;;;16.39;100.00;99644.50;1720426;82;20420;-68
2022/07/17 01:43:07;;;;;;;4.83;1.77;;;;;;;16.35;100.00;99638.00;1738765;82;21063;-69
2022/07/17 01:45:34;;;;;;;4.60;2.00;;;;;;;16.29;100.00;99644.75;1735533;82;21859;-69
2022/07/17 01:48:00;;;;;;;3.05;1.72;;;;;;;16.25;100.00;99644.30;1722929;82;21035;-68
2022/07/17 01:50:27;;;;;;;;;;;;;;;16.26;100.00;99652.80;1732769;82;21023;-69
2022/07/17 01:52:53;;;;;;;3.87;1.60;;;;;;;16.32;100.00;99647.42;1727205;82;20125;-68
2022/07/17 01:55:19;;;;;;;3.90;1.70;;;;;;;16.32;100.00;99652.92;1734059;82;21083;-69
2022/07/17 01:57:47;;;;;;;4.75;1.90;;;;;;;16.34;100.00;99647.91;1723679;82;21082;-69
2022/07/17 02:00:16;;;;;;;;;;;;;;;16.35;100.00;99651.73;1724888;82;21066;-69
2022/07/17 02:02:43;;;;;;;3.67;1.77;;;;;;;16.36;100.00;99643.75;1717580;82;20439;-68
2022/07/17 02:05:09;;;;;;;6.80;4.25;;;;;;;16.29;100.00;99646.12;1720747;82;21063;-68
2022/07/17 02:07:39;;;;;;;9.70;6.85;;;;;;;16.23;100.00;99643.22;1720746;82;21131;-69
2022/07/17 02:10:07;;;;;;;19.07;14.20;;;;;;;16.24;100.00;99642.11;1718952;82;20979;-69
2022/07/17 02:12:33;;;;;;;10.82;6.20;;;;;;;16.25;100.00;99642.37;1716956;83;21047;-68
2022/07/17 02:14:59;;;;;;;8.25;4.50;;;;;;;16.24;100.00;99645.41;1725646;82;21015;-68
2022/07/17 02:17:26;;;;;;;6.60;3.65;;;;;;;16.22;100.00;99638.88;1718515;82;21003;-68
2022/07/17 02:19:52;;;;;;;;;;;;;;;16.21;100.00;99638.62;1736509;82;21031;-68
2022/07/17 02:22:19;;;;;;;18.47;11.20;;;;;;;16.17;100.00;99628.55;1746355;82;20106;-68
2022/07/17 02:24:45;;;;;;;;;;;;;;;16.04;100.00;99643.16;1728004;82;21712;-68
2022/07/17 02:27:11;;;;;;;12.93;9.00;;;;;;;16.04;100.00;99636.29;1718871;82;20124;-68
2022/07/17 02:29:38;;;;;;;11.50;6.25;;;;;;;16.03;100.00;99638.78;1739732;82;21039;-68
2022/07/17 02:32:05;;;;;;;;;;;;;;;16.02;100.00;99645.38;1735642;82;21027;-70
2022/07/17 02:34:32;;;;;;;8.20;5.05;;;;;;;16.02;100.00;99645.38;1729501;82;20117;-68
2022/07/17 02:36:59;;;;;;;6.08;3.70;;;;;;;15.94;100.00;99646.95;1730099;82;20967;-69
2022/07/17 02:39:25;;;;;;;;;;;;;;;15.87;100.00;99649.30;1732521;82;21444;-70
2022/07/17 02:41:51;;;;;;;11.73;7.95;;;;;;;15.79;100.00;99648.10;1717553;81;20097;-68
2022/07/17 02:44:17;;;;;;;;;;;;;;;15.69;100.00;99646.14;1719660;82;21637;-69
2022/07/17 02:46:44;;;;;;;22.50;14.85;;;;;;;15.71;100.00;99646.62;1729918;82;20090;-69
2022/07/17 02:49:12;;;;;;;22.60;13.62;;;;;;;15.71;100.00;99643.33;1691197;84;21082;-69
2022/07/17 02:51:39;;;;;;;23.77;14.90;;;;;;;15.72;100.00;99634.54;1698215;84;21086;-69
2022/07/17 02:54:05;;;;;;;;;;;;;;;15.74;100.00;99633.10;1691664;84;21046;-69
2022/07/17 02:56:32;;;;;;;35.03;20.92;;;;;;;15.77;100.00;99635.23;1687594;84;20135;-69
2022/07/17 02:58:58;;;;;;;;;;;;;;;15.75;100.00;99636.66;1682237;84;21154;-69
2022/07/17 03:01:24;;;;;;;26.35;14.90;;;;;;;15.76;100.00;99640.48;1667761;84;20432;-69
2022/07/17 03:03:51;;;;;;;;;;;;;;;15.76;100.00;99641.86;1674933;85;21585;-68
2022/07/17 03:06:17;;;;;;;6.83;3.83;;;;;;;15.78;100.00;99642.34;1689212;85;20436;-69
2022/07/17 03:08:45;;;;;;;8.83;4.50;;;;;;;15.67;100.00;99638.20;1677996;85;21067;-69
2022/07/17 03:11:11;;;;;;;5.75;3.58;;;;;;;15.61;100.00;99638.62;1669845;84;21581;-68
2022/07/17 03:13:38;;;;;;;5.45;3.33;;;;;;;15.62;100.00;99643.00;1664067;85;21043;-69
2022/07/17 03:16:05;;;;;;;7.08;3.40;;;;;;;15.64;100.00;99642.12;1678928;85;21087;-69
2022/07/17 03:18:31;;;;;;;4.65;2.40;;;;;;;15.65;100.00;99636.89;1673170;85;21067;-68
2022/07/17 03:20:57;;;;;;;;;;;;;;;15.61;100.00;99636.69;1730458;82;21432;-69
2022/07/17 03:23:24;;;;;;;5.85;2.50;;;;;;;15.59;100.00;99641.66;1732784;81;20101;-69
2022/07/17 03:25:51;;;;;;;3.65;2.30;;;;;;;15.57;100.00;99645.84;1717194;82;21059;-69
2022/07/17 03:28:17;;;;;;;;;;;;;;;15.58;100.00;99645.54;1733218;82;21541;-69
2022/07/17 03:30:44;;;;;;;3.37;2.17;;;;;;;15.55;100.00;99639.30;1723331;82;20111;-70
2022/07/17 03:33:11;;;;;;;4.92;2.50;;;;;;;15.58;100.00;99633.75;1732958;82;21474;-69
2022/07/17 03:35:37;;;;;;;5.00;2.75;;;;;;;15.57;100.00;99636.23;1716334;82;21806;-69
2022/07/17 03:38:05;;;;;;;6.65;2.52;;;;;;;15.56;100.00;99627.73;1727540;82;21056;-69
2022/07/17 03:40:33;;;;;;;4.35;2.42;;;;;;;15.60;100.00;99623.27;1726602;82;21019;-69
2022/07/17 03:42:59;;;;;;;5.22;2.40;;;;;;;15.63;100.00;99625.39;1709591;82;21633;-69
2022/07/17 03:45:26;;;;;;;5.97;2.42;;;;;;;15.68;100.00;99626.11;1725013;82;21016;-69
2022/07/17 03:47:53;;;;;;;4.72;2.67;;;;;;;15.85;100.00;99627.64;1736012;82;21012;-68
2022/07/17 03:50:21;;;;;;;6.78;2.75;;;;;;;16.17;100.00;99634.86;1716249;82;21031;-68
2022/07/17 03:52:47;;;;;;;5.78;2.67;;;;;;;16.54;100.00;99638.38;1729964;82;21091;-67
2022/07/17 03:55:14;;;;;;;5.65;2.85;;;;;;;16.93;100.00;99639.27;1719473;82;21067;-68
2022/07/17 03:57:40;;;;;;;5.92;2.87;;;;;;;17.39;100.00;99644.31;1726696;82;21593;-67
2022/07/17 04:00:09;;;;;;;4.87;2.98;;;;;;;17.75;100.00;99644.11;1709297;82;21068;-68
2022/07/17 04:02:38;;;;;;;5.90;3.40;;;;;;;17.90;100.00;99633.20;1715289;82;21111;-68
2022/07/17 04:05:09;;;;;;;5.78;2.90;;;;;;;17.96;100.00;99636.63;1729685;82;21483;-68
2022/07/17 04:07:33;;;;;;;5.90;2.72;;;;;;;17.98;100.00;99637.92;1735831;82;21071;-68
2022/07/17 04:10:00;;;;;;;4.58;2.87;;;;;;;17.97;100.00;99629.41;1730749;82;20964;-68
2022/07/17 04:12:26;;;;;;;6.42;3.20;;;;;;;17.92;100.00;99633.71;1723031;82;21004;-68
2022/07/17 04:14:53;;;;;;;4.92;3.10;;;;;;;17.73;100.00;99620.23;1720202;82;20968;-69
2022/07/17 04:17:20;;;;;;;5.20;3.05;;;;;;;17.65;100.00;99625.72;1731074;82;21035;-68
2022/07/17 04:19:48;;;;;;;5.40;3.05;;;;;;;17.50;100.00;99646.80;1721767;82;21538;-69
2022/07/17 04:22:14;;;;;;;4.92;2.83;;;;;;;17.32;100.00;99639.05;1711952;82;21063;-68
2022/07/17 04:24:41;;;;;;;5.28;2.60;;;;;;;17.15;100.00;99635.65;1729393;82;21000;-68
2022/07/17 04:27:09;;;;;;;5.30;2.42;;;;;;;17.07;100.00;99637.82;1722274;82;21091;-69
2022/07/17 04:29:36;;;;;;;4.83;2.60;;;;;;;17.06;100.00;99630.69;1709052;84;21023;-68
2022/07/17 04:32:04;;;;;;;4.12;2.25;;;;;;;17.02;100.00;99624.19;1711976;82;21055;-68
2022/07/17 04:34:32;;;;;;;5.50;2.58;;;;;;;16.93;100.00;99629.41;1717766;82;21518;-68
2022/07/17 04:37:01;;;;;;;6.03;2.20;;;;;;;16.89;100.00;99629.23;1709846;82;21538;-68
2022/07/17 04:39:28;;;;;;;4.67;2.10;;;;;;;16.96;100.00;99632.91;1712164;82;21067;-67
2022/07/17 04:41:54;;;;;;;4.55;2.20;;;;;;;17.05;100.00;99624.12;1713053;82;21016;-68
2022/07/17 04:44:21;;;;;;;5.65;2.25;;;;;;;17.09;100.00;99625.92;1713762;82;21135;-69
2022/07/17 04:46:47;;;;;;;4.55;2.20;;;;;;;17.15;100.00;99623.27;1708911;84;21135;-68
2022/07/17 04:49:14;;;;;;;;;;;;;;;17.18;100.00;99614.38;1711911;82;21054;-68
2022/07/17 04:51:42;;;;;;;5.40;1.90;;;;;;;17.16;100.00;99614.46;1711747;82;20402;-68
2022/07/17 04:54:08;;;;;;;6.33;2.00;;;;;;;17.09;100.00;99615.48;1730812;82;21051;-68
2022/07/17 04:56:34;;;;;;;;;;;;;;;17.16;100.00;99622.15;1714389;82;21023;-69
2022/07/17 04:59:01;;;;;;;3.33;1.65;;;;;;;17.18;100.00;99614.38;1713907;82;20095;-68
2022/07/17 05:01:27;;;;;;;5.22;1.50;;;;;;;17.13;100.00;99624.16;1725096;82;21027;-68
2022/07/17 05:03:53;;;;;;;;;;;;;;;17.12;100.00;99614.84;1730746;82;21557;-68
2022/07/17 05:06:20;;;;;;;3.95;1.62;;;;;;;17.12;100.00;99619.78;1717281;83;20165;-69
2022/07/17 05:08:47;;;;;;;6.03;1.72;;;;;;;17.04;100.00;99611.52;1721080;82;21075;-67
2022/07/17 05:11:14;;;;;;;4.05;1.70;;;;;;;17.00;100.00;99614.09;1728351;82;21019;-68
2022/07/17 05:13:42;;;;;;;3.95;1.85;;;;;;;17.05;100.00;99603.49;1738716;82;21091;-68
2022/07/17 05:16:09;;;;;;;5.85;1.65;;;;;;;17.06;100.00;99602.38;1717358;82;21107;-68
2022/07/17 05:18:36;;;;;;;3.77;1.70;;;;;;;17.00;100.00;99617.40;1723109;82;21514;-68
2022/07/17 05:21:03;;;;;;;3.37;1.50;;;;;;;16.91;100.00;99622.28;1733307;82;20999;-68
2022/07/17 05:23:29;;;;;;;;;;;;;;;16.90;100.00;99626.72;1721494;82;21074;-68
2022/07/17 05:25:56;;;;;;;4.40;1.72;;;;;;;16.92;100.00;99621.73;1717466;82;20132;-69
2022/07/17 05:28:22;;;;;;;5.17;2.02;;;;;;;16.96;100.00;99623.28;1718434;82;21585;-69
2022/07/17 05:30:49;;;;;;;;;;;;;;;16.99;100.00;99613.02;1739874;82;21643;-70
2022/07/17 05:33:15;;;;;;;4.75;1.90;;;;;;;17.02;100.00;99613.75;1729365;81;20419;-69
2022/07/17 05:35:41;;;;;;;;;;;;;;;16.96;100.00;99608.97;1734756;82;21058;-69
2022/07/17 05:38:10;;;;;;;4.80;1.70;;;;;;;17.00;100.00;99618.77;1745467;82;20155;-70
2022/07/17 05:40:36;;;;;;;4.30;1.72;;;;;;;16.96;100.00;99617.78;1733887;82;21010;-69
2022/07/17 05:43:03;;;;;;;3.05;1.85;;;;;;;17.00;100.00;99628.40;1728050;82;21028;-68
2022/07/17 05:45:29;;;;;;;4.53;1.75;;;;;;;16.93;100.00;99632.98;1717715;82;20967;-70
2022/07/17 05:47:57;;;;;;;3.80;1.60;;;;;;;16.85;100.00;99632.37;1727470;82;21504;-69
2022/07/17 05:50:23;;;;;;;;;;;;;;;16.87;100.00;99637.78;1741624;82;21538;-68
2022/07/17 05:52:49;;;;;;;5.47;1.50;;;;;;;16.89;100.00;99636.92;1732250;82;20156;-69
2022/07/17 05:55:16;;;;;;;2.92;1.30;;;;;;;16.72;100.00;99644.27;1726753;82;21467;-68
2022/07/17 05:57:42;;;;;;;3.45;1.20;;;;;;;16.56;100.00;99647.95;1737242;82;21043;-68
2022/07/17 06:00:10;;;;;;;;;;;;;;;16.41;100.00;99654.59;1739793;82;21601;-68
2022/07/17 06:02:40;;;;;;;3.50;1.17;;;;;;;16.33;100.00;99667.70;1731001;82;20133;-70
2022/07/17 06:05:08;;;;;;;3.00;1.20;;;;;;;16.18;100.00;99661.77;1721838;82;21012;-68
2022/07/17 06:07:36;;;;;;;3.12;1.20;;;;;;;16.07;100.00;99646.09;1718405;82;21130;-68
2022/07/17 06:10:05;;;;;;;4.78;1.20;;;;;;;16.01;100.00;99663.00;1724869;82;20984;-68
2022/07/17 06:12:31;;;;;;;1.82;1.10;;;;;;;15.99;100.00;99659.17;1677967;84;21059;-68
2022/07/17 06:14:57;;;;;;;2.83;1.20;;;;;;;16.06;100.00;99671.91;1675877;84;21592;-68
2022/07/17 06:17:24;;;;;;;5.08;1.47;;;;;;;16.14;100.00;99666.25;1680247;84;21047;-68
2022/07/17 06:19:51;;;;;;;3.12;1.40;;;;;;;16.04;100.00;99675.55;1688945;84;21042;-68
2022/07/17 06:22:21;;;;;;;2.67;1.50;;;;;;;15.91;100.00;99676.37;1673587;84;21120;-69
2022/07/17 06:24:47;;;;;;;2.75;1.37;;;;;;;15.77;100.00;99679.70;1680799;84;21421;-68
2022/07/17 06:27:15;;;;;;;3.47;1.30;;;;;;;15.59;100.00;99664.98;1671343;84;21696;-68
2022/07/17 06:29:42;;;;;;;2.10;1.02;;;;;;;15.41;100.00;99669.42;1674896;84;20987;-68
2022/07/17 06:32:09;;;;;;;3.98;1.32;;;;;;;15.41;100.00;99680.95;1687283;84;21516;-69
2022/07/17 06:34:35;;;;;;;;;;;;;;;15.47;100.00;99696.22;1679780;84;21019;-69
2022/07/17 06:37:02;;;;;;;5.03;1.30;;;;;;;15.46;100.00;99698.70;1680949;84;20461;-67
2022/07/17 06:39:31;;;;;;;3.33;1.15;;;;;;;15.35;100.00;99691.23;1683612;84;21114;-68
2022/07/17 06:41:57;;;;;;;;;;;;;;;15.29;100.00;99696.56;1687037;84;21078;-69
2022/07/17 06:44:24;;;;;;;3.15;1.27;;;;;;;15.32;100.00;99713.78;1688621;84;20148;-68
2022/07/17 06:46:51;;;;;;;3.52;1.70;;;;;;;15.32;100.00;99709.66;1670230;86;21110;-68
2022/07/17 06:49:18;;;;;;;3.87;1.50;;;;;;;15.30;100.00;99722.85;1679781;84;21110;-69
2022/07/17 06:51:45;;;;;;;4.70;1.47;;;;;;;15.24;100.00;99726.00;1673725;84;21079;-68
2022/07/17 06:54:12;;;;;;;2.83;1.30;;;;;;;15.18;100.00;99729.41;1683882;84;21614;-68
2022/07/17 06:56:41;;;;;;;3.33;1.20;;;;;;;15.20;100.00;99740.05;1686984;84;21122;-68
2022/07/17 06:59:07;;;;;;;2.75;1.22;;;;;;;15.18;100.00;99736.25;1679397;84;21670;-67
2022/07/17 07:01:36;;;;;;;3.90;1.45;;;;;;;15.12;100.00;99748.99;1672141;84;21051;-67
2022/07/17 07:04:03;;;;;;;3.40;1.35;;;;;;;15.13;100.00;99747.85;1669147;85;21106;-67
2022/07/17 07:06:30;;;;;;;2.80;1.32;;;;;;;15.19;100.00;99752.97;1694310;84;21015;-67
2022/07/17 07:08:57;;;;;;;2.22;1.02;;;;;;;15.35;100.00;99758.98;1687664;84;21122;-68
2022/07/17 07:11:23;;;;;;;2.33;1.17;;;;;;;15.40;100.00;99763.01;1690590;84;21075;-66
2022/07/17 07:13:50;;;;;;;2.72;1.07;;;;;;;15.37;100.00;99762.25;1699302;84;21019;-66
2022/07/17 07:16:17;;;;;;;2.55;0.80;;;;;;;15.27;100.00;99759.11;1724475;82;21016;-67
2022/07/17 07:18:44;;;;;;;2.10;0.90;;;;;;;15.17;100.00;99753.81;1724537;82;21047;-67
2022/07/17 07:21:10;;;;;;;3.62;1.15;;;;;;;15.04;100.00;99744.19;1732259;82;21506;-64
2022/07/17 07:23:37;;;;;;;1.70;0.75;;;;;;;14.98;100.00;99743.48;1725229;82;21064;-65
2022/07/17 07:26:04;;;;;;;3.08;0.85;;;;;;;15.11;100.00;99741.31;1722256;82;21031;-66
2022/07/17 07:28:31;;;;;;;2.33;1.10;;;;;;;15.30;100.00;99741.27;1716520;82;21027;-66
2022/07/17 07:30:57;;;;;;;;;;;;;;;15.67;100.00;99743.84;1728875;82;21126;-63
2022/07/17 07:33:23;;;;;;;2.08;0.80;;;;;;;16.46;100.00;99736.66;1725191;82;20117;-66
2022/07/17 07:35:51;;;;;;;2.17;0.72;;;;;;;17.28;100.00;99726.91;1729670;82;21037;-66
2022/07/17 07:38:17;;;;;;;2.40;0.72;;;;;;;18.25;100.00;99723.02;1729101;82;21004;-67
2022/07/17 07:40:44;;;;;;;3.47;0.70;;;;;;;19.04;100.00;99705.31;1719235;82;22193;-66
2022/07/17 07:43:11;;;;;;;1.62;0.68;;;;;;;19.49;100.00;99691.88;1717455;82;21430;-66
2022/07/17 07:45:37;;;;;;;1.20;0.50;;;;;;;19.77;100.00;99698.55;1732531;82;21487;-68
2022/07/17 07:48:05;;;;;;;1.57;0.60;;;;;;;19.61;100.00;99696.13;1741051;82;21071;-68
2022/07/17 07:50:31;;;;;;;1.45;0.68;;;;;;;19.32;100.00;99713.43;1717104;82;21000;-66
2022/07/17 07:52:59;;;;;;;0.80;0.50;;;;;;;19.19;100.00;99706.98;1730528;82;21095;-66
2022/07/17 07:55:26;;;;;;;4.08;0.68;;;;;;;18.89;100.00;99705.27;1722650;82;21031;-65
2022/07/17 07:58:08;;;;;;;1.27;0.60;;;;;;;18.58;100.00;99706.03;1732622;82;21031;-67
2022/07/17 08:00:35;;;;;;;1.20;0.70;;;;;;;18.39;100.00;99711.27;1728543;82;21019;-67
2022/07/17 08:03:01;;;;;;;2.08;0.93;;;;;;;18.28;100.00;99711.34;1726561;82;21557;-65
2022/07/17 08:05:28;;;;;;;3.55;0.70;;;;;;;18.45;100.00;99715.25;1727353;82;21062;-68
2022/07/17 08:07:55;;;;;;;2.15;0.70;;;;;;;18.97;100.00;99712.72;1723021;82;21063;-65
2022/07/17 08:10:22;;;;;;;2.37;1.02;;;;;;;19.62;100.00;99715.14;1735681;82;20992;-66
2022/07/17 08:12:48;;;;;;;3.05;1.00;;;;;;;20.02;100.00;99716.12;1731407;82;21077;-67
2022/07/17 08:16:43;;;;;;;5.60;0.80;;;;;;;20.74;100.00;99706.90;1790869;79;23414;-65
2022/07/17 08:19:09;;;;;;;2.45;1.10;;;;;;;20.94;100.00;99705.23;1744186;80;21531;-65
2022/07/17 08:21:36;;;;;;;1.60;0.55;;;;;;;20.88;100.00;99701.06;1725639;82;21098;-66
2022/07/17 08:24:04;;;;;;;1.47;0.72;;;;;;;21.04;100.00;99701.24;1718803;83;21159;-66
2022/07/17 08:26:30;;;;;;;1.55;0.85;;;;;;;21.46;100.00;99708.28;1696927;83;21137;-65
2022/07/17 08:28:57;;;;;;;1.12;0.45;;;;;;;21.95;100.00;99702.77;1713222;83;21055;-66
2022/07/17 08:31:25;;;;;;;2.60;0.70;;;;;;;22.35;100.00;99705.02;1725359;83;21495;-67
2022/07/17 08:33:51;;;;;;;1.22;0.50;;;;;;;22.28;100.00;99700.03;1716479;83;21144;-66
2022/07/17 08:36:18;;;;;;;1.00;0.40;;;;;;;22.24;100.00;99703.88;1706082;83;21102;-65
2022/07/17 08:38:44;;;;;;;0.90;0.33;;;;;;;22.11;100.00;99705.85;1697806;83;21066;-65
2022/07/17 08:41:10;;;;;;;18.27;14.30;;;;;;;22.21;97.03;99701.20;1715564;82;21046;-69
2022/07/17 08:43:37;;;;;;;1.30;0.50;;;;;;;22.57;84.63;99702.27;1717583;83;21067;-62
2022/07/17 08:46:04;;;;;;;0.75;0.30;;;;;;;22.95;75.28;99695.68;1725329;83;21592;-64
2022/07/17 08:48:31;;;;;;;1.32;0.42;;;;;;;23.34;79.60;99694.52;1718704;83;21114;-63
2022/07/17 08:50:59;;;;;;;1.15;0.40;;;;;;;23.76;73.13;99692.26;1709480;83;21076;-63
2022/07/17 08:53:25;;;;;;;0.98;0.30;;;;;;;23.96;62.88;99683.38;1700652;83;21127;-63
2022/07/17 08:55:51;;;;;;;1.00;0.40;;;;;;;23.96;62.88;99683.38;1720849;83;21050;-63
2022/07/17 08:58:18;;;;;;;1.00;0.30;;;;;;;23.84;57.35;99696.02;1706438;83;21110;-62
2022/07/17 09:00:45;;;;;;;1.02;0.30;;;;;;;23.73;61.08;99692.98;1704355;83;21098;-63
2022/07/17 09:03:14;;;;;;;0.70;0.30;;;;;;;23.98;61.94;99692.18;1733188;82;21370;-64
2022/07/17 09:05:40;;;;;;;1.22;0.20;;;;;;;24.18;55.68;99695.25;1683838;83;21899;-65
2022/07/17 09:08:09;;;;;;;0.78;0.40;;;;;;;23.58;55.82;99692.98;1708417;83;21099;-63
2022/07/17 09:10:42;;;;;;;1.42;0.30;;;;;;;22.20;68.82;99691.30;1719264;83;21021;-65
2022/07/17 09:13:26;;;;;;;1.12;0.30;;;;;;;22.20;68.82;99691.30;1710231;83;21605;-66
2022/07/17 09:15:59;;;;;;;1.17;0.40;;;;;;;21.77;83.40;99688.31;1709896;83;21098;-65
2022/07/17 09:18:26;;;;;;;0.72;0.30;;;;;;;21.77;83.40;99688.31;1685803;83;21668;-65
2022/07/17 09:20:56;;;;;;;1.17;0.40;;;;;;;21.49;86.25;99684.61;1685203;84;21105;-65
2022/07/17 09:23:25;;;;;;;1.22;0.55;;;;;;;21.11;97.64;99684.92;1693039;83;21082;-63
2022/07/17 09:25:54;;;;;;;2.35;0.40;;;;;;;21.12;100.00;99686.51;1709343;83;21083;-65
2022/07/17 09:28:20;;;;;;;1.70;0.53;;;;;;;21.22;100.00;99686.09;1715834;83;21636;-65
2022/07/17 09:30:52;;;;;;;1.72;0.45;;;;;;;21.09;100.00;99688.55;1708660;83;21476;-64
2022/07/17 09:33:24;;;;;;;0.82;0.50;;;;;;;20.70;100.00;99685.78;1712485;83;21505;-65
2022/07/17 09:35:55;;;;;;;1.12;0.47;;;;;;;20.45;100.00;99690.97;1687401;84;21020;-65
2022/07/17 09:38:28;;;;;;;2.22;0.50;;;;;;;20.40;100.00;99689.80;1691039;83;21009;-62
2022/07/17 09:41:15;;;;;;;1.40;0.50;;;;;;;20.62;100.00;99681.94;1760954;81;21657;-64
2022/07/17 09:43:57;;;;;;;1.70;0.50;;;;;;;20.83;100.00;99684.70;1757756;81;21027;-63
2022/07/17 09:46:30;;;;;;;4.40;2.02;;;;;;;20.93;100.00;99683.45;1690484;84;21350;-60
2022/07/17 09:49:04;;;;;;;66.75;60.17;;;;;;;20.69;100.00;99684.19;1701377;83;21617;-63
2022/07/17 09:51:37;;;;;;;1.40;0.50;;;;;;;20.40;100.00;99680.94;1706468;83;21449;-62
2022/07/17 09:54:06;;;;;;;95.92;85.95;;;;;;;20.23;100.00;99677.69;1704044;83;21055;-60
2022/07/17 09:56:35;;;;;;;1.37;1.05;;;;;;;20.06;100.00;99680.58;1706434;83;21636;-62
2022/07/17 09:59:09;;;;;;;4.35;3.05;;;;;;;20.16;100.00;99676.03;1704547;83;21093;-60
2022/07/17 10:01:38;;;;;;;1.70;1.15;;;;;;;20.26;100.00;99674.84;1703583;83;21059;-60
2022/07/17 10:04:05;;;;;;;2.65;1.45;;;;;;;20.33;100.00;99666.25;1713981;83;21113;-62
2022/07/17 10:06:31;;;;;;;1.77;0.70;;;;;;;20.39;100.00;99664.68;1697316;83;21550;-61
2022/07/17 10:08:58;;;;;;;4.35;0.37;;;;;;;20.41;100.00;99663.19;1758665;81;21086;-73
2022/07/17 10:11:28;;;;;;;1.95;1.00;;;;;;;20.42;98.97;99664.00;1755853;81;21026;-71
2022/07/17 10:13:58;;;;;;;1.02;0.47;;;;;;;20.25;100.00;99668.50;1763336;81;21021;-73
2022/07/17 10:16:28;;;;;;;2.30;1.10;;;;;;;20.14;100.00;99674.77;1767011;80;21530;-73
2022/07/17 10:18:57;;;;;;;1.72;0.50;;;;;;;20.02;100.00;99665.00;1751536;81;21023;-73
2022/07/17 10:21:25;;;;;;;3.33;1.50;;;;;;;19.92;100.00;99673.13;1760669;81;21015;-73
2022/07/17 10:24:01;;;;;;;1.57;1.00;;;;;;;19.81;100.00;99677.41;1754180;81;21114;-73
2022/07/17 10:26:43;;;;;;;3.20;1.52;;;;;;;19.78;100.00;99669.23;1752926;79;21015;-74
2022/07/17 10:29:32;;;;;;;18.12;16.15;;;;;;;19.83;100.00;99670.43;1752955;81;21165;-78
2022/07/17 10:32:00;;;;;;;8.95;6.47;;;;;;;20.10;100.00;99661.38;1708002;83;21083;-72
2022/07/17 10:34:45;;;;;;;4.90;2.10;;;;;;;20.33;100.00;99666.85;1756403;80;21508;-74
2022/07/17 10:37:36;;;;;;;27.27;22.90;;;;;;;20.38;100.00;99658.34;1759116;81;21015;-75
2022/07/17 10:40:08;;;;;;;1.77;0.80;;;;;;;20.32;100.00;99659.70;1726913;81;21890;-76
2022/07/17 10:43:00;;;;;;;2.70;1.22;;;;;;;20.46;100.00;99662.17;1726827;81;21534;-77
2022/07/17 10:45:44;;;;;;;3.25;2.00;;;;;;;20.71;100.00;99654.21;1745738;81;21094;-75
2022/07/17 10:48:19;;;;;;;34.05;25.62;;;;;;;20.99;100.00;99661.32;1757554;80;21099;-75
2022/07/17 10:50:48;;;;;;;2.35;0.80;;;;;;;21.01;95.87;99657.66;1738739;81;21031;-76
2022/07/17 10:53:24;;;;;;;1.05;0.47;;;;;;;20.90;97.61;99657.28;1756736;81;21527;-73
2022/07/17 10:56:01;;;;;;;2.67;0.40;;;;;;;20.70;99.19;99659.50;1764125;81;21027;-75
2022/07/17 10:58:35;;;;;;;9.75;6.92;;;;;;;20.45;100.00;99661.94;1755315;81;21044;-76
2022/07/17 11:01:10;;;;;;;32.83;27.63;;;;;;;20.09;100.00;99673.56;1766073;80;20996;-74
2022/07/17 11:03:50;;;;;;;8.03;6.20;;;;;;;19.67;100.00;99674.89;1765304;81;21049;-74
2022/07/17 11:06:23;;;;;;;4.35;2.77;;;;;;;19.52;100.00;99681.57;1746964;81;21042;-74
2022/07/17 11:09:00;;;;;;;5.10;1.27;;;;;;;19.49;100.00;99686.34;1761792;81;21058;-77
2022/07/17 11:11:50;;;;;;;4.12;2.30;;;;;;;19.41;100.00;99678.91;1756967;80;21491;-76
2022/07/17 11:14:24;;;;;;;5.30;2.42;;;;;;;19.33;100.00;99692.41;1736459;81;21032;-77
2022/07/17 11:16:57;;;;;;;13.80;11.10;;;;;;;19.51;100.00;99686.84;1728091;81;21035;-76
2022/07/17 11:19:31;;;;;;;2.87;1.45;;;;;;;19.72;100.00;99690.48;1692437;84;21550;-75
2022/07/17 11:22:04;;;;;;;2.00;0.40;;;;;;;19.81;100.00;99681.55;1764543;81;21015;-74
2022/07/17 11:24:43;;;;;;;0.95;0.20;;;;;;;19.98;100.00;99691.11;1708080;83;21012;-75
2022/07/17 11:27:14;;;;;;;1.70;0.30;;;;;;;20.17;100.00;99683.76;1753330;81;20979;-75
2022/07/17 11:29:41;;;;;;;1.10;0.50;;;;;;;20.19;100.00;99675.36;1744683;81;21543;-74
2022/07/17 11:32:07;;;;;;;1.07;0.50;;;;;;;20.13;100.00;99678.66;1754199;81;20980;-73
2022/07/17 11:34:34;;;;;;;1.60;0.37;;;;;;;20.05;100.00;99678.95;1756681;81;21576;-74
2022/07/17 11:37:03;;;;;;;0.62;0.20;;;;;;;20.14;100.00;99683.05;1760008;81;21054;-75